Aviation Digital Data Service (ADDS)

Output produced by METARs form (0854 UTC 23 July 2019)
found at http://www.aviationweather.gov/metar/data/
 
Forecast for: HSSS (KHARTOUM (CIV/MI, SD)
Text: TAF HSSS 230500Z 2306/2412 21012G22KT CAVOK
Forecast period: 0600 UTC 23 July 2019 to 1200 UTC 24 July 2019
Forecast type: FROM: standard forecast or significant change
Winds: from the SSW (210 degrees) at 14 MPH (12 knots; 6.2 m/s)
gusting to 25 MPH (22 knots; 11.3 m/s)
Visibility: 6 or more miles 10+ km)
Ceiling: unknown
Clouds: missing
Weather: NSW  (no significant weather)
Text: TEMPO 2312/2315 9999 SCT040 SCT140
Forecast period: 1200 to 1500 UTC 23 July 2019
Forecast type: TEMPORARY: The following changes expected for less than half the time period
Visibility: 6 or more miles 10+ km)
Ceiling: at least 12,000 feet AGL
Clouds: scattered clouds at 4000 feet AGL
scattered clouds at 14000 feet AGL
Weather: no significant weather forecast for this period
Text: PROB30
Forecast period: 1600 to 1900 UTC 23 July 2019
Forecast type: TEMPORARY: The following changes expected for less than half the time period
Visibility: 4 miles (6 km)
Ceiling: at least 12,000 feet AGL
Clouds: few clouds at 4500 feet AGL
Weather: TSRA  (rain associated with thunderstorm(s))